createdAt,value
2023-04-28T00:03:59.525Z,7.50
2023-04-28T00:14:07.187Z,7.40
2023-04-28T00:19:10.825Z,7.50
2023-04-28T00:24:14.455Z,7.20
2023-04-28T00:29:18.255Z,7.90
2023-04-28T00:34:21.766Z,6.70
2023-04-28T00:39:26.923Z,6.70
2023-04-28T00:44:30.640Z,9.90
2023-04-28T00:49:34.577Z,12.00
2023-04-28T00:54:38.588Z,12.90
2023-04-28T00:59:42.007Z,9.10
2023-04-28T01:04:46.587Z,6.00
2023-04-28T01:09:49.956Z,5.70
2023-04-28T01:14:53.368Z,6.00
2023-04-28T01:19:57.199Z,7.80
2023-04-28T01:25:00.813Z,10.20
2023-04-28T01:30:04.647Z,5.60
2023-04-28T01:35:08.567Z,6.60
2023-04-28T01:40:12.679Z,6.90
2023-04-28T01:45:16.327Z,6.20
2023-04-28T01:50:19.841Z,5.30
2023-04-28T01:55:23.237Z,7.00
2023-04-28T02:00:27.572Z,5.90
2023-04-28T02:05:30.981Z,6.40
2023-04-28T02:10:34.498Z,7.10
2023-04-28T02:15:42.139Z,6.30
2023-04-28T02:20:45.831Z,6.90
2023-04-28T02:25:49.239Z,6.70
2023-04-28T02:30:53.267Z,13.20
2023-04-28T02:36:01.245Z,10.90
2023-04-28T02:41:06.865Z,6.50
2023-04-28T02:46:10.304Z,7.20
2023-04-28T02:51:14.513Z,6.00
2023-04-28T02:56:18.008Z,6.00
2023-04-28T03:01:21.780Z,5.80
2023-04-28T03:06:25.249Z,10.40
2023-04-28T03:11:28.969Z,7.80
2023-04-28T03:16:32.623Z,6.70
2023-04-28T03:21:36.105Z,6.00
2023-04-28T03:26:39.618Z,6.20
2023-04-28T03:31:43.163Z,6.50
2023-04-28T03:36:46.958Z,9.10
2023-04-28T03:41:50.472Z,10.40
2023-04-28T03:46:54.203Z,5.60
2023-04-28T03:51:57.605Z,5.30
2023-04-28T03:57:02.394Z,5.20
2023-04-28T04:02:05.780Z,7.20
2023-04-28T04:07:09.387Z,8.00
2023-04-28T04:12:12.794Z,5.70
2023-04-28T04:17:16.908Z,5.50
2023-04-28T04:22:20.346Z,7.10
2023-04-28T04:27:23.831Z,5.20
2023-04-28T04:32:27.521Z,6.40
2023-04-28T04:37:31.199Z,8.80
2023-04-28T04:42:34.808Z,6.00
2023-04-28T04:47:38.554Z,5.80
2023-04-28T04:52:41.943Z,5.00
2023-04-28T04:57:45.558Z,5.10
2023-04-28T05:02:49.110Z,7.10
2023-04-28T05:07:52.693Z,6.90
2023-04-28T05:12:56.323Z,7.80
2023-04-28T05:18:00.014Z,6.20
2023-04-28T05:23:04.061Z,5.60
2023-04-28T05:28:10.959Z,5.60
2023-04-28T05:33:14.374Z,5.90
2023-04-28T05:38:18.197Z,6.10
2023-04-28T05:43:21.821Z,7.70
2023-04-28T05:48:25.325Z,8.10
2023-04-28T05:53:28.840Z,7.60
2023-04-28T05:58:32.661Z,6.00
2023-04-28T06:03:36.708Z,5.70
2023-04-28T06:08:40.676Z,4.70
2023-04-28T06:13:45.154Z,5.80
2023-04-28T06:18:49.838Z,5.20
2023-04-28T06:23:53.516Z,6.30
2023-04-28T06:29:04.989Z,3.80
2023-04-28T06:34:09.671Z,3.70
2023-04-28T06:39:14.517Z,6.00
2023-04-28T06:44:18.391Z,3.40
2023-04-28T06:49:22.408Z,3.50
2023-04-28T06:54:25.880Z,3.30
2023-04-28T06:59:29.385Z,4.80
2023-04-28T07:04:32.821Z,3.00
2023-04-28T07:09:36.837Z,2.90
2023-04-28T07:14:40.143Z,4.20
2023-04-28T07:19:43.566Z,5.20
2023-04-28T07:24:47.071Z,4.20
2023-04-28T07:29:50.484Z,3.90
2023-04-28T07:34:54.007Z,3.40
2023-04-28T07:39:57.517Z,5.20
2023-04-28T07:45:01.084Z,3.90
2023-04-28T07:50:06.823Z,2.50
2023-04-28T07:55:10.621Z,2.70
2023-04-28T08:00:15.041Z,2.20
2023-04-28T08:05:18.908Z,3.60
2023-04-28T08:10:23.131Z,2.40
2023-04-28T08:15:27.955Z,1.80
2023-04-28T08:20:32.907Z,2.80
2023-04-28T08:25:36.547Z,2.00
2023-04-28T08:30:40.447Z,2.30
2023-04-28T08:35:43.864Z,1.70
2023-04-28T08:40:47.376Z,1.90
2023-04-28T08:45:50.798Z,1.60
2023-04-28T08:50:55.201Z,2.50
2023-04-28T08:55:59.066Z,1.90
2023-04-28T09:01:05.843Z,0.90
2023-04-28T09:06:09.255Z,1.50
2023-04-28T09:11:13.917Z,2.30
2023-04-28T09:16:17.442Z,2.20
2023-04-28T09:21:21.131Z,1.90
2023-04-28T09:26:25.360Z,3.60
2023-04-28T09:31:28.932Z,2.60
2023-04-28T09:36:32.952Z,1.90
2023-04-28T09:41:44.445Z,1.40
2023-04-28T09:46:49.201Z,2.70
2023-04-28T09:51:52.776Z,1.60
2023-04-28T09:56:57.323Z,1.60
2023-04-28T10:02:12.776Z,1.30
2023-04-28T10:07:28.062Z,2.50
2023-04-28T10:12:33.151Z,1.70
2023-04-28T10:17:39.352Z,1.50
2023-04-28T10:22:52.168Z,1.20
2023-04-28T10:27:59.910Z,1.40
2023-04-28T10:33:06.669Z,2.20
2023-04-28T10:38:15.415Z,1.80
2023-04-28T10:43:32.167Z,2.50
2023-04-28T10:48:55.526Z,2.10
2023-04-28T10:54:19.784Z,1.20
2023-04-28T10:59:28.334Z,1.60
2023-04-28T11:05:10.709Z,1.70
2023-04-28T11:10:14.503Z,1.40
2023-04-28T11:15:17.818Z,1.40
2023-04-28T11:20:23.498Z,1.50
2023-04-28T11:25:27.095Z,1.40
2023-04-28T11:30:30.412Z,1.70
2023-04-28T11:35:43.970Z,1.70
2023-04-28T11:40:59.759Z,1.90
2023-04-28T11:46:03.835Z,1.30
2023-04-28T11:51:07.815Z,1.80
2023-04-28T11:56:13.631Z,1.70
2023-04-28T12:01:17.003Z,1.80
2023-04-28T12:06:20.622Z,2.00
2023-04-28T12:11:25.629Z,1.90
2023-04-28T12:16:47.003Z,1.90
2023-04-28T12:22:01.238Z,1.60
2023-04-28T12:27:25.269Z,1.40
2023-04-28T12:32:43.643Z,1.70
2023-04-28T12:37:47.040Z,1.70
2023-04-28T12:43:01.103Z,1.80
2023-04-28T12:48:05.477Z,2.30
2023-04-28T12:53:09.087Z,2.20
2023-04-28T12:58:12.785Z,3.00
2023-04-28T13:08:20.426Z,3.00
2023-04-28T13:13:24.048Z,3.30
2023-04-28T13:18:27.767Z,1.50
2023-04-28T13:28:34.605Z,3.40
2023-04-28T13:33:38.106Z,2.10
2023-04-28T13:38:41.521Z,1.80
2023-04-28T13:48:48.853Z,2.40
2023-04-28T13:53:52.273Z,2.60
2023-04-28T14:03:59.194Z,2.20
2023-04-28T14:15:08.290Z,2.00
2023-04-28T14:20:12.117Z,3.40
2023-04-28T14:25:39.478Z,2.00
2023-04-28T14:37:47.300Z,1.60
2023-04-28T14:42:50.960Z,2.20
2023-04-28T14:47:54.304Z,1.90
2023-04-28T14:53:05.564Z,2.30
2023-04-28T14:58:09.100Z,2.40
2023-04-28T15:03:12.626Z,1.80
2023-04-28T15:08:16.425Z,3.00
2023-04-28T15:13:19.942Z,2.70
2023-04-28T15:18:23.350Z,2.80
2023-04-28T15:23:26.764Z,3.20
2023-04-28T15:28:30.083Z,3.10
2023-04-28T15:33:33.897Z,2.70
2023-04-28T15:38:38.741Z,2.80
2023-04-28T15:43:43.105Z,3.10
2023-04-28T15:48:46.391Z,3.40
2023-04-28T15:53:51.104Z,4.50
2023-04-28T15:58:54.554Z,3.30
2023-04-28T16:03:58.161Z,4.70
2023-04-28T16:09:02.293Z,2.00
2023-04-28T16:14:06.018Z,2.10
2023-04-28T16:19:10.364Z,2.10
2023-04-28T16:24:13.763Z,2.50
2023-04-28T16:29:17.388Z,2.00
2023-04-28T16:34:20.697Z,3.60
2023-04-28T16:39:24.128Z,1.80
2023-04-28T16:44:33.365Z,1.60
2023-04-28T16:49:36.883Z,2.50
2023-04-28T16:54:40.338Z,3.90
2023-04-28T16:59:44.132Z,2.80
2023-04-28T17:04:47.551Z,3.10
2023-04-28T17:09:51.194Z,2.30
2023-04-28T17:14:55.064Z,5.60
2023-04-28T17:20:00.172Z,10.60
2023-04-28T17:25:05.508Z,11.20
2023-04-28T17:30:14.727Z,5.70
2023-04-28T17:35:18.244Z,7.00
2023-04-28T17:40:24.353Z,12.20
2023-04-28T17:45:28.144Z,9.10
2023-04-28T17:50:31.463Z,11.90
2023-04-28T17:55:34.768Z,11.50
2023-04-28T18:05:41.481Z,9.50
2023-04-28T18:10:44.893Z,14.70
2023-04-28T18:15:48.314Z,18.60
2023-04-28T18:20:58.228Z,19.70
2023-04-28T18:26:01.505Z,64.40
2023-04-28T18:31:06.486Z,23.60
2023-04-28T18:36:10.259Z,22.70
2023-04-28T18:41:18.054Z,17.80
2023-04-28T18:46:21.555Z,22.70
2023-04-28T18:51:25.511Z,16.10
2023-04-28T18:56:29.437Z,14.30
2023-04-28T19:01:32.788Z,12.20
2023-04-28T19:06:36.857Z,12.80
2023-04-28T19:11:40.288Z,13.70
2023-04-28T19:16:43.650Z,17.60
2023-04-28T19:21:47.528Z,16.10
2023-04-28T19:26:50.937Z,16.00
2023-04-28T19:31:54.759Z,15.60
2023-04-28T19:36:59.331Z,14.10
2023-04-28T19:42:03.849Z,12.10
2023-04-28T19:47:07.768Z,8.90
2023-04-28T19:52:11.135Z,8.30
2023-04-28T19:57:15.314Z,8.90
2023-04-28T20:02:19.323Z,19.60
2023-04-28T20:07:23.164Z,12.70
2023-04-28T20:12:26.742Z,8.10
2023-04-28T20:17:30.420Z,9.00
2023-04-28T20:22:35.762Z,11.70
2023-04-28T20:27:39.484Z,11.70
2023-04-28T20:32:42.835Z,13.70
2023-04-28T20:37:46.530Z,11.90
2023-04-28T20:42:50.228Z,10.90
2023-04-28T20:47:56.391Z,9.90
2023-04-28T20:53:00.132Z,9.70
2023-04-28T20:58:03.546Z,46.10
2023-04-28T21:03:08.166Z,59.30
2023-04-28T21:08:12.532Z,28.50
2023-04-28T21:13:16.041Z,19.20
2023-04-28T21:18:19.398Z,14.00
2023-04-28T21:23:22.862Z,14.80
2023-04-28T21:28:26.406Z,13.60
2023-04-28T21:33:30.608Z,13.70
2023-04-28T21:38:34.547Z,14.90
2023-04-28T21:43:37.868Z,15.20
2023-04-28T21:48:41.457Z,45.10
2023-04-28T21:53:44.874Z,33.60
2023-04-28T21:58:48.572Z,23.50
2023-04-28T22:03:52.365Z,16.10
2023-04-28T22:08:57.058Z,20.30
2023-04-28T22:14:00.373Z,20.10
2023-04-28T22:19:04.205Z,11.50
2023-04-28T22:24:08.578Z,13.80
2023-04-28T22:34:17.031Z,16.90
2023-04-28T22:44:23.920Z,16.40
2023-04-28T22:49:28.777Z,11.20
2023-04-28T22:54:32.279Z,9.90
2023-04-28T22:59:35.795Z,10.10
2023-04-28T23:04:39.767Z,6.80
2023-04-28T23:09:43.339Z,7.40
2023-04-28T23:14:46.870Z,7.20
2023-04-28T23:19:50.660Z,5.90
2023-04-28T23:24:54.294Z,6.70
2023-04-28T23:29:57.812Z,6.30
2023-04-28T23:35:01.260Z,5.60
2023-04-28T23:40:05.564Z,5.80
2023-04-28T23:45:10.089Z,4.00
2023-04-28T23:50:13.723Z,3.60
2023-04-28T23:55:17.536Z,4.20
